sensor_id;sensor_type;location;lat;lon;timestamp;P1;durP1;ratioP1;P2;durP2;ratioP2
52512;SDS011;38422;53.172;6.974;2022-12-29T00:02:18;5.45;;;2.92;;
52512;SDS011;38422;53.172;6.974;2022-12-29T00:04:44;5.45;;;3.22;;
52512;SDS011;38422;53.172;6.974;2022-12-29T00:07:10;7.10;;;3.20;;
52512;SDS011;38422;53.172;6.974;2022-12-29T00:09:36;4.28;;;2.47;;
52512;SDS011;38422;53.172;6.974;2022-12-29T00:12:02;4.22;;;2.72;;
52512;SDS011;38422;53.172;6.974;2022-12-29T00:14:29;4.88;;;3.00;;
52512;SDS011;38422;53.172;6.974;2022-12-29T00:17:13;3.28;;;2.60;;
52512;SDS011;38422;53.172;6.974;2022-12-29T00:19:39;3.80;;;2.55;;
52512;SDS011;38422;53.172;6.974;2022-12-29T00:22:24;3.85;;;2.60;;
52512;SDS011;38422;53.172;6.974;2022-12-29T00:25:19;4.43;;;2.92;;
52512;SDS011;38422;53.172;6.974;2022-12-29T00:28:04;4.95;;;3.00;;
52512;SDS011;38422;53.172;6.974;2022-12-29T00:30:50;4.68;;;3.05;;
52512;SDS011;38422;53.172;6.974;2022-12-29T00:33:34;3.90;;;3.40;;
52512;SDS011;38422;53.172;6.974;2022-12-29T00:36:40;3.38;;;2.88;;
52512;SDS011;38422;53.172;6.974;2022-12-29T00:39:10;4.20;;;3.40;;
52512;SDS011;38422;53.172;6.974;2022-12-29T00:42:02;4.15;;;3.40;;
52512;SDS011;38422;53.172;6.974;2022-12-29T00:45:04;4.93;;;3.50;;
52512;SDS011;38422;53.172;6.974;2022-12-29T00:47:30;3.90;;;3.00;;
52512;SDS011;38422;53.172;6.974;2022-12-29T00:49:56;4.03;;;3.20;;
52512;SDS011;38422;53.172;6.974;2022-12-29T00:52:21;4.95;;;3.00;;
52512;SDS011;38422;53.172;6.974;2022-12-29T00:54:47;3.95;;;2.75;;
52512;SDS011;38422;53.172;6.974;2022-12-29T00:57:13;3.72;;;2.85;;
52512;SDS011;38422;53.172;6.974;2022-12-29T00:59:39;4.75;;;2.72;;
52512;SDS011;38422;53.172;6.974;2022-12-29T01:02:06;4.38;;;2.85;;
52512;SDS011;38422;53.172;6.974;2022-12-29T01:04:32;4.07;;;2.78;;
52512;SDS011;38422;53.172;6.974;2022-12-29T01:06:58;4.22;;;3.00;;
52512;SDS011;38422;53.172;6.974;2022-12-29T01:09:24;3.70;;;2.63;;
52512;SDS011;38422;53.172;6.974;2022-12-29T01:12:08;4.15;;;2.70;;
52512;SDS011;38422;53.172;6.974;2022-12-29T01:14:35;2.88;;;2.53;;
52512;SDS011;38422;53.172;6.974;2022-12-29T01:17:02;3.92;;;2.92;;
52512;SDS011;38422;53.172;6.974;2022-12-29T01:19:29;4.25;;;2.70;;
52512;SDS011;38422;53.172;6.974;2022-12-29T01:21:55;3.33;;;2.53;;
52512;SDS011;38422;53.172;6.974;2022-12-29T01:24:21;3.40;;;2.53;;
52512;SDS011;38422;53.172;6.974;2022-12-29T01:26:47;3.40;;;2.60;;
52512;SDS011;38422;53.172;6.974;2022-12-29T01:29:13;3.97;;;2.40;;
52512;SDS011;38422;53.172;6.974;2022-12-29T01:31:39;3.08;;;2.42;;
52512;SDS011;38422;53.172;6.974;2022-12-29T01:34:05;3.80;;;2.80;;
52512;SDS011;38422;53.172;6.974;2022-12-29T01:36:31;2.85;;;2.10;;
52512;SDS011;38422;53.172;6.974;2022-12-29T01:38:57;4.35;;;2.50;;
52512;SDS011;38422;53.172;6.974;2022-12-29T01:41:23;3.00;;;2.42;;
52512;SDS011;38422;53.172;6.974;2022-12-29T01:46:20;3.72;;;2.47;;
52512;SDS011;38422;53.172;6.974;2022-12-29T01:49:09;3.47;;;2.40;;
52512;SDS011;38422;53.172;6.974;2022-12-29T01:51:44;3.85;;;2.25;;
52512;SDS011;38422;53.172;6.974;2022-12-29T01:54:20;3.67;;;2.47;;
52512;SDS011;38422;53.172;6.974;2022-12-29T01:56:50;3.45;;;2.45;;
52512;SDS011;38422;53.172;6.974;2022-12-29T01:59:18;3.95;;;2.38;;
52512;SDS011;38422;53.172;6.974;2022-12-29T02:01:47;4.80;;;2.22;;
52512;SDS011;38422;53.172;6.974;2022-12-29T02:04:13;5.43;;;2.50;;
52512;SDS011;38422;53.172;6.974;2022-12-29T02:06:41;3.30;;;2.20;;
52512;SDS011;38422;53.172;6.974;2022-12-29T02:09:20;3.42;;;2.30;;
52512;SDS011;38422;53.172;6.974;2022-12-29T02:11:47;3.53;;;2.35;;
52512;SDS011;38422;53.172;6.974;2022-12-29T02:14:13;3.88;;;2.10;;
52512;SDS011;38422;53.172;6.974;2022-12-29T02:16:42;3.30;;;2.20;;
52512;SDS011;38422;53.172;6.974;2022-12-29T02:22:11;3.80;;;2.20;;
52512;SDS011;38422;53.172;6.974;2022-12-29T02:30:07;2.80;;;1.60;;
52512;SDS011;38422;53.172;6.974;2022-12-29T02:33:00;4.00;;;2.13;;
52512;SDS011;38422;53.172;6.974;2022-12-29T02:35:30;2.47;;;1.75;;
52512;SDS011;38422;53.172;6.974;2022-12-29T02:43:04;3.30;;;1.77;;
52512;SDS011;38422;53.172;6.974;2022-12-29T02:48:13;2.88;;;2.00;;
52512;SDS011;38422;53.172;6.974;2022-12-29T02:50:57;3.42;;;2.00;;
52512;SDS011;38422;53.172;6.974;2022-12-29T02:53:26;3.28;;;1.80;;
52512;SDS011;38422;53.172;6.974;2022-12-29T02:56:13;3.97;;;1.95;;
52512;SDS011;38422;53.172;6.974;2022-12-29T02:58:39;3.28;;;1.92;;
52512;SDS011;38422;53.172;6.974;2022-12-29T03:06:35;3.20;;;1.80;;
52512;SDS011;38422;53.172;6.974;2022-12-29T03:11:50;5.15;;;1.67;;
52512;SDS011;38422;53.172;6.974;2022-12-29T03:17:57;2.55;;;1.83;;
52512;SDS011;38422;53.172;6.974;2022-12-29T03:23:32;2.33;;;1.30;;
52512;SDS011;38422;53.172;6.974;2022-12-29T03:26:01;3.33;;;1.38;;
52512;SDS011;38422;53.172;6.974;2022-12-29T03:28:30;2.67;;;1.00;;
52512;SDS011;38422;53.172;6.974;2022-12-29T03:31:03;2.45;;;1.02;;
52512;SDS011;38422;53.172;6.974;2022-12-29T03:33:32;1.58;;;0.90;;
52512;SDS011;38422;53.172;6.974;2022-12-29T03:36:01;2.00;;;1.10;;
52512;SDS011;38422;53.172;6.974;2022-12-29T03:41:07;1.92;;;0.80;;
52512;SDS011;38422;53.172;6.974;2022-12-29T03:43:36;2.30;;;0.75;;
52512;SDS011;38422;53.172;6.974;2022-12-29T03:46:02;1.52;;;0.57;;
52512;SDS011;38422;53.172;6.974;2022-12-29T03:48:28;1.90;;;0.80;;
52512;SDS011;38422;53.172;6.974;2022-12-29T03:50:54;1.45;;;0.90;;
52512;SDS011;38422;53.172;6.974;2022-12-29T03:53:19;1.63;;;0.88;;
52512;SDS011;38422;53.172;6.974;2022-12-29T03:55:45;2.15;;;0.90;;
52512;SDS011;38422;53.172;6.974;2022-12-29T03:58:11;2.75;;;1.10;;
52512;SDS011;38422;53.172;6.974;2022-12-29T04:00:36;2.53;;;0.80;;
52512;SDS011;38422;53.172;6.974;2022-12-29T04:03:02;2.55;;;0.70;;
52512;SDS011;38422;53.172;6.974;2022-12-29T04:05:28;2.08;;;0.80;;
52512;SDS011;38422;53.172;6.974;2022-12-29T04:07:54;3.35;;;0.98;;
52512;SDS011;38422;53.172;6.974;2022-12-29T04:10:19;1.38;;;0.80;;
52512;SDS011;38422;53.172;6.974;2022-12-29T04:12:45;1.85;;;0.82;;
52512;SDS011;38422;53.172;6.974;2022-12-29T04:15:11;1.55;;;0.50;;
52512;SDS011;38422;53.172;6.974;2022-12-29T04:17:37;1.58;;;0.60;;
52512;SDS011;38422;53.172;6.974;2022-12-29T04:20:03;1.23;;;0.75;;
52512;SDS011;38422;53.172;6.974;2022-12-29T04:23:05;2.30;;;0.70;;
52512;SDS011;38422;53.172;6.974;2022-12-29T04:25:31;2.95;;;0.90;;
52512;SDS011;38422;53.172;6.974;2022-12-29T04:27:58;3.65;;;0.70;;
52512;SDS011;38422;53.172;6.974;2022-12-29T04:30:24;1.52;;;0.60;;
52512;SDS011;38422;53.172;6.974;2022-12-29T04:32:50;4.13;;;0.80;;
52512;SDS011;38422;53.172;6.974;2022-12-29T04:35:16;1.90;;;0.57;;
52512;SDS011;38422;53.172;6.974;2022-12-29T04:37:42;3.33;;;0.68;;
52512;SDS011;38422;53.172;6.974;2022-12-29T04:40:07;3.17;;;0.80;;
52512;SDS011;38422;53.172;6.974;2022-12-29T04:42:34;3.93;;;1.00;;
52512;SDS011;38422;53.172;6.974;2022-12-29T04:45:00;3.08;;;1.10;;
52512;SDS011;38422;53.172;6.974;2022-12-29T04:47:25;1.83;;;0.70;;
52512;SDS011;38422;53.172;6.974;2022-12-29T04:49:51;3.17;;;0.70;;
52512;SDS011;38422;53.172;6.974;2022-12-29T04:52:17;5.38;;;0.90;;
52512;SDS011;38422;53.172;6.974;2022-12-29T04:54:42;2.65;;;0.50;;
52512;SDS011;38422;53.172;6.974;2022-12-29T04:57:08;2.55;;;0.60;;
52512;SDS011;38422;53.172;6.974;2022-12-29T04:59:34;2.03;;;0.50;;
52512;SDS011;38422;53.172;6.974;2022-12-29T05:01:59;2.13;;;0.43;;
52512;SDS011;38422;53.172;6.974;2022-12-29T05:04:25;3.97;;;0.60;;
52512;SDS011;38422;53.172;6.974;2022-12-29T05:06:51;3.65;;;0.80;;
52512;SDS011;38422;53.172;6.974;2022-12-29T05:09:17;2.03;;;0.50;;
52512;SDS011;38422;53.172;6.974;2022-12-29T05:11:45;1.75;;;0.30;;
52512;SDS011;38422;53.172;6.974;2022-12-29T05:14:10;5.25;;;0.70;;
52512;SDS011;38422;53.172;6.974;2022-12-29T05:16:36;2.33;;;0.55;;
52512;SDS011;38422;53.172;6.974;2022-12-29T05:19:02;2.20;;;0.50;;
52512;SDS011;38422;53.172;6.974;2022-12-29T05:21:27;3.55;;;0.60;;
52512;SDS011;38422;53.172;6.974;2022-12-29T05:23:53;3.22;;;0.80;;
52512;SDS011;38422;53.172;6.974;2022-12-29T05:26:19;3.05;;;0.60;;
52512;SDS011;38422;53.172;6.974;2022-12-29T05:28:44;5.10;;;0.70;;
52512;SDS011;38422;53.172;6.974;2022-12-29T05:31:10;5.03;;;0.80;;
52512;SDS011;38422;53.172;6.974;2022-12-29T05:33:36;3.58;;;0.65;;
52512;SDS011;38422;53.172;6.974;2022-12-29T05:36:08;7.10;;;0.90;;
52512;SDS011;38422;53.172;6.974;2022-12-29T05:38:34;3.13;;;0.77;;
52512;SDS011;38422;53.172;6.974;2022-12-29T05:41:00;5.00;;;1.10;;
52512;SDS011;38422;53.172;6.974;2022-12-29T05:43:26;3.92;;;0.70;;
52512;SDS011;38422;53.172;6.974;2022-12-29T05:45:52;5.32;;;0.85;;
52512;SDS011;38422;53.172;6.974;2022-12-29T05:48:18;5.68;;;1.20;;
52512;SDS011;38422;53.172;6.974;2022-12-29T05:50:47;5.57;;;1.13;;
52512;SDS011;38422;53.172;6.974;2022-12-29T05:53:14;5.32;;;1.45;;
52512;SDS011;38422;53.172;6.974;2022-12-29T05:55:39;7.45;;;1.50;;
52512;SDS011;38422;53.172;6.974;2022-12-29T05:58:05;7.15;;;1.10;;
52512;SDS011;38422;53.172;6.974;2022-12-29T06:00:31;5.65;;;0.98;;
52512;SDS011;38422;53.172;6.974;2022-12-29T06:03:00;4.00;;;1.00;;
52512;SDS011;38422;53.172;6.974;2022-12-29T06:05:25;7.30;;;1.45;;
52512;SDS011;38422;53.172;6.974;2022-12-29T06:07:51;5.63;;;1.23;;
52512;SDS011;38422;53.172;6.974;2022-12-29T06:10:17;7.05;;;1.20;;
52512;SDS011;38422;53.172;6.974;2022-12-29T06:12:43;7.00;;;1.30;;
52512;SDS011;38422;53.172;6.974;2022-12-29T06:15:08;3.28;;;0.95;;
52512;SDS011;38422;53.172;6.974;2022-12-29T06:17:34;5.43;;;1.33;;
52512;SDS011;38422;53.172;6.974;2022-12-29T06:20:00;5.65;;;0.88;;
52512;SDS011;38422;53.172;6.974;2022-12-29T06:22:26;3.97;;;0.70;;
52512;SDS011;38422;53.172;6.974;2022-12-29T06:24:52;8.07;;;1.20;;
52512;SDS011;38422;53.172;6.974;2022-12-29T06:27:17;5.47;;;1.10;;
52512;SDS011;38422;53.172;6.974;2022-12-29T06:29:43;4.55;;;0.88;;
52512;SDS011;38422;53.172;6.974;2022-12-29T06:32:09;4.55;;;0.90;;
52512;SDS011;38422;53.172;6.974;2022-12-29T06:34:38;4.80;;;0.82;;
52512;SDS011;38422;53.172;6.974;2022-12-29T06:37:04;4.68;;;0.88;;
52512;SDS011;38422;53.172;6.974;2022-12-29T06:39:29;6.03;;;0.90;;
52512;SDS011;38422;53.172;6.974;2022-12-29T06:41:55;6.85;;;0.88;;
52512;SDS011;38422;53.172;6.974;2022-12-29T06:44:23;6.95;;;1.05;;
52512;SDS011;38422;53.172;6.974;2022-12-29T06:46:49;5.80;;;1.08;;
52512;SDS011;38422;53.172;6.974;2022-12-29T06:49:15;5.53;;;1.00;;
52512;SDS011;38422;53.172;6.974;2022-12-29T06:51:41;6.13;;;1.08;;
52512;SDS011;38422;53.172;6.974;2022-12-29T06:54:07;5.25;;;1.10;;
52512;SDS011;38422;53.172;6.974;2022-12-29T06:56:33;5.47;;;0.90;;
52512;SDS011;38422;53.172;6.974;2022-12-29T06:58:59;6.55;;;1.13;;
52512;SDS011;38422;53.172;6.974;2022-12-29T07:01:27;8.98;;;1.30;;
52512;SDS011;38422;53.172;6.974;2022-12-29T07:03:53;4.43;;;1.33;;
52512;SDS011;38422;53.172;6.974;2022-12-29T07:06:18;8.13;;;1.23;;
52512;SDS011;38422;53.172;6.974;2022-12-29T07:08:44;5.18;;;1.27;;
52512;SDS011;38422;53.172;6.974;2022-12-29T07:11:10;8.20;;;1.38;;
52512;SDS011;38422;53.172;6.974;2022-12-29T07:13:36;9.75;;;1.30;;
52512;SDS011;38422;53.172;6.974;2022-12-29T07:16:05;6.38;;;1.20;;
52512;SDS011;38422;53.172;6.974;2022-12-29T07:18:32;7.00;;;1.33;;
52512;SDS011;38422;53.172;6.974;2022-12-29T07:20:58;7.65;;;1.50;;
52512;SDS011;38422;53.172;6.974;2022-12-29T07:23:23;3.35;;;0.90;;
52512;SDS011;38422;53.172;6.974;2022-12-29T07:25:49;7.47;;;1.00;;
52512;SDS011;38422;53.172;6.974;2022-12-29T07:28:15;7.65;;;1.20;;
52512;SDS011;38422;53.172;6.974;2022-12-29T07:30:40;7.20;;;1.33;;
52512;SDS011;38422;53.172;6.974;2022-12-29T07:33:06;7.25;;;1.13;;
52512;SDS011;38422;53.172;6.974;2022-12-29T07:35:33;7.90;;;1.60;;
52512;SDS011;38422;53.172;6.974;2022-12-29T07:37:59;7.35;;;1.58;;
52512;SDS011;38422;53.172;6.974;2022-12-29T07:40:25;6.47;;;1.42;;
52512;SDS011;38422;53.172;6.974;2022-12-29T07:42:51;7.07;;;1.25;;
52512;SDS011;38422;53.172;6.974;2022-12-29T07:45:16;7.75;;;1.35;;
52512;SDS011;38422;53.172;6.974;2022-12-29T07:47:42;10.15;;;1.20;;
52512;SDS011;38422;53.172;6.974;2022-12-29T07:50:08;10.07;;;1.67;;
52512;SDS011;38422;53.172;6.974;2022-12-29T07:52:33;8.13;;;1.67;;
52512;SDS011;38422;53.172;6.974;2022-12-29T07:54:59;6.07;;;1.33;;
52512;SDS011;38422;53.172;6.974;2022-12-29T07:57:25;11.10;;;1.65;;
52512;SDS011;38422;53.172;6.974;2022-12-29T07:59:50;8.57;;;1.52;;
52512;SDS011;38422;53.172;6.974;2022-12-29T08:02:16;10.30;;;1.85;;
52512;SDS011;38422;53.172;6.974;2022-12-29T08:04:42;7.70;;;1.73;;
52512;SDS011;38422;53.172;6.974;2022-12-29T08:07:07;6.78;;;1.30;;
52512;SDS011;38422;53.172;6.974;2022-12-29T08:09:33;8.93;;;1.50;;
52512;SDS011;38422;53.172;6.974;2022-12-29T08:11:59;9.52;;;1.35;;
52512;SDS011;38422;53.172;6.974;2022-12-29T08:14:25;16.05;;;1.73;;
52512;SDS011;38422;53.172;6.974;2022-12-29T08:16:50;6.95;;;1.63;;
52512;SDS011;38422;53.172;6.974;2022-12-29T08:19:16;9.80;;;1.33;;
52512;SDS011;38422;53.172;6.974;2022-12-29T08:21:42;6.90;;;1.50;;
52512;SDS011;38422;53.172;6.974;2022-12-29T08:24:08;9.50;;;1.38;;
52512;SDS011;38422;53.172;6.974;2022-12-29T08:26:34;8.63;;;1.40;;
52512;SDS011;38422;53.172;6.974;2022-12-29T08:29:00;5.97;;;1.20;;
52512;SDS011;38422;53.172;6.974;2022-12-29T08:31:26;5.68;;;1.33;;
52512;SDS011;38422;53.172;6.974;2022-12-29T08:33:51;7.60;;;1.50;;
52512;SDS011;38422;53.172;6.974;2022-12-29T08:36:17;7.07;;;1.60;;
52512;SDS011;38422;53.172;6.974;2022-12-29T08:38:43;10.60;;;1.75;;
52512;SDS011;38422;53.172;6.974;2022-12-29T08:41:08;7.72;;;1.35;;
52512;SDS011;38422;53.172;6.974;2022-12-29T08:43:34;6.55;;;1.55;;
52512;SDS011;38422;53.172;6.974;2022-12-29T08:46:00;6.60;;;1.52;;
52512;SDS011;38422;53.172;6.974;2022-12-29T08:48:26;11.05;;;1.83;;
52512;SDS011;38422;53.172;6.974;2022-12-29T08:50:52;7.47;;;1.30;;
52512;SDS011;38422;53.172;6.974;2022-12-29T08:53:18;8.48;;;1.63;;
52512;SDS011;38422;53.172;6.974;2022-12-29T08:55:47;10.63;;;2.00;;
52512;SDS011;38422;53.172;6.974;2022-12-29T08:58:19;11.77;;;1.90;;
52512;SDS011;38422;53.172;6.974;2022-12-29T09:00:45;9.05;;;1.50;;
52512;SDS011;38422;53.172;6.974;2022-12-29T09:03:11;18.00;;;1.98;;
52512;SDS011;38422;53.172;6.974;2022-12-29T09:05:36;14.10;;;2.53;;
52512;SDS011;38422;53.172;6.974;2022-12-29T09:08:02;11.65;;;2.05;;
52512;SDS011;38422;53.172;6.974;2022-12-29T09:10:29;11.00;;;1.90;;
52512;SDS011;38422;53.172;6.974;2022-12-29T09:12:55;11.10;;;1.90;;
52512;SDS011;38422;53.172;6.974;2022-12-29T09:15:21;8.70;;;1.48;;
52512;SDS011;38422;53.172;6.974;2022-12-29T09:17:46;8.57;;;1.60;;
52512;SDS011;38422;53.172;6.974;2022-12-29T09:20:13;9.18;;;1.58;;
52512;SDS011;38422;53.172;6.974;2022-12-29T09:22:41;8.77;;;1.60;;
52512;SDS011;38422;53.172;6.974;2022-12-29T09:25:08;10.80;;;2.42;;
52512;SDS011;38422;53.172;6.974;2022-12-29T09:27:34;7.68;;;1.60;;
52512;SDS011;38422;53.172;6.974;2022-12-29T09:30:03;8.68;;;1.58;;
52512;SDS011;38422;53.172;6.974;2022-12-29T09:32:31;11.40;;;2.00;;
52512;SDS011;38422;53.172;6.974;2022-12-29T09:34:57;8.55;;;1.67;;
52512;SDS011;38422;53.172;6.974;2022-12-29T09:37:23;8.45;;;1.80;;
52512;SDS011;38422;53.172;6.974;2022-12-29T09:39:49;10.07;;;1.77;;
52512;SDS011;38422;53.172;6.974;2022-12-29T09:47:31;11.77;;;1.83;;
52512;SDS011;38422;53.172;6.974;2022-12-29T09:49:59;7.28;;;1.40;;
52512;SDS011;38422;53.172;6.974;2022-12-29T09:52:30;9.80;;;1.98;;
52512;SDS011;38422;53.172;6.974;2022-12-29T09:57:38;7.38;;;1.80;;
52512;SDS011;38422;53.172;6.974;2022-12-29T10:00:14;12.77;;;2.10;;
52512;SDS011;38422;53.172;6.974;2022-12-29T10:02:46;11.23;;;1.70;;
52512;SDS011;38422;53.172;6.974;2022-12-29T10:11:09;11.25;;;1.50;;
52512;SDS011;38422;53.172;6.974;2022-12-29T10:22:04;8.48;;;1.23;;
52512;SDS011;38422;53.172;6.974;2022-12-29T10:24:39;6.40;;;1.10;;
52512;SDS011;38422;53.172;6.974;2022-12-29T10:27:12;9.43;;;1.70;;
52512;SDS011;38422;53.172;6.974;2022-12-29T10:29:42;6.90;;;1.20;;
52512;SDS011;38422;53.172;6.974;2022-12-29T10:35:16;11.52;;;1.83;;
52512;SDS011;38422;53.172;6.974;2022-12-29T10:43:24;9.50;;;2.00;;
52512;SDS011;38422;53.172;6.974;2022-12-29T10:45:52;8.68;;;1.80;;
52512;SDS011;38422;53.172;6.974;2022-12-29T10:48:32;7.10;;;1.50;;
52512;SDS011;38422;53.172;6.974;2022-12-29T10:51:00;9.65;;;1.90;;
52512;SDS011;38422;53.172;6.974;2022-12-29T10:53:40;7.97;;;1.58;;
52512;SDS011;38422;53.172;6.974;2022-12-29T10:56:21;6.95;;;1.95;;
52512;SDS011;38422;53.172;6.974;2022-12-29T10:59:23;6.57;;;1.50;;
52512;SDS011;38422;53.172;6.974;2022-12-29T11:01:56;7.28;;;1.48;;
52512;SDS011;38422;53.172;6.974;2022-12-29T11:07:23;6.93;;;1.73;;
52512;SDS011;38422;53.172;6.974;2022-12-29T11:09:48;6.93;;;1.50;;
52512;SDS011;38422;53.172;6.974;2022-12-29T11:15:11;9.25;;;1.73;;
52512;SDS011;38422;53.172;6.974;2022-12-29T11:17:50;7.80;;;1.30;;
52512;SDS011;38422;53.172;6.974;2022-12-29T11:20:36;7.47;;;1.23;;
52512;SDS011;38422;53.172;6.974;2022-12-29T11:23:04;7.32;;;1.27;;
52512;SDS011;38422;53.172;6.974;2022-12-29T11:25:46;6.50;;;1.30;;
52512;SDS011;38422;53.172;6.974;2022-12-29T11:28:30;6.60;;;1.20;;
52512;SDS011;38422;53.172;6.974;2022-12-29T11:31:00;7.65;;;1.30;;
52512;SDS011;38422;53.172;6.974;2022-12-29T11:33:31;5.35;;;1.15;;
52512;SDS011;38422;53.172;6.974;2022-12-29T11:36:02;11.35;;;1.60;;
52512;SDS011;38422;53.172;6.974;2022-12-29T11:38:51;7.22;;;1.40;;
52512;SDS011;38422;53.172;6.974;2022-12-29T11:41:23;8.02;;;1.52;;
52512;SDS011;38422;53.172;6.974;2022-12-29T11:43:50;8.00;;;1.50;;
52512;SDS011;38422;53.172;6.974;2022-12-29T11:46:25;9.98;;;1.70;;
52512;SDS011;38422;53.172;6.974;2022-12-29T11:48:56;10.45;;;1.90;;
52512;SDS011;38422;53.172;6.974;2022-12-29T11:51:34;9.38;;;1.60;;
52512;SDS011;38422;53.172;6.974;2022-12-29T11:54:10;8.07;;;1.65;;
52512;SDS011;38422;53.172;6.974;2022-12-29T11:56:54;6.40;;;1.52;;
52512;SDS011;38422;53.172;6.974;2022-12-29T12:01:56;9.82;;;1.90;;
52512;SDS011;38422;53.172;6.974;2022-12-29T12:04:28;11.70;;;1.80;;
52512;SDS011;38422;53.172;6.974;2022-12-29T12:07:19;9.80;;;1.73;;
52512;SDS011;38422;53.172;6.974;2022-12-29T12:14:55;9.57;;;1.88;;
52512;SDS011;38422;53.172;6.974;2022-12-29T12:17:29;10.65;;;2.20;;
52512;SDS011;38422;53.172;6.974;2022-12-29T12:20:19;10.52;;;1.92;;
52512;SDS011;38422;53.172;6.974;2022-12-29T12:26:11;14.75;;;2.53;;
52512;SDS011;38422;53.172;6.974;2022-12-29T12:28:43;11.57;;;2.00;;
52512;SDS011;38422;53.172;6.974;2022-12-29T12:34:12;13.15;;;2.28;;
52512;SDS011;38422;53.172;6.974;2022-12-29T12:39:59;9.85;;;2.40;;
52512;SDS011;38422;53.172;6.974;2022-12-29T12:54:12;11.38;;;2.30;;
52512;SDS011;38422;53.172;6.974;2022-12-29T12:57:23;12.35;;;1.88;;
52512;SDS011;38422;53.172;6.974;2022-12-29T13:00:12;8.30;;;1.98;;
52512;SDS011;38422;53.172;6.974;2022-12-29T13:06:09;7.78;;;1.60;;
52512;SDS011;38422;53.172;6.974;2022-12-29T13:11:52;5.57;;;1.50;;
52512;SDS011;38422;53.172;6.974;2022-12-29T13:14:46;8.05;;;1.42;;
52512;SDS011;38422;53.172;6.974;2022-12-29T13:28:16;9.20;;;1.30;;
52512;SDS011;38422;53.172;6.974;2022-12-29T13:36:44;10.75;;;1.70;;
52512;SDS011;38422;53.172;6.974;2022-12-29T13:39:20;10.38;;;1.60;;
52512;SDS011;38422;53.172;6.974;2022-12-29T13:41:53;6.15;;;1.50;;
52512;SDS011;38422;53.172;6.974;2022-12-29T13:44:25;7.05;;;1.20;;
52512;SDS011;38422;53.172;6.974;2022-12-29T13:46:55;6.72;;;1.40;;
52512;SDS011;38422;53.172;6.974;2022-12-29T13:49:24;8.43;;;1.52;;
52512;SDS011;38422;53.172;6.974;2022-12-29T14:02:24;11.45;;;2.38;;
52512;SDS011;38422;53.172;6.974;2022-12-29T14:07:48;9.93;;;1.40;;
52512;SDS011;38422;53.172;6.974;2022-12-29T14:13:14;9.10;;;1.70;;
52512;SDS011;38422;53.172;6.974;2022-12-29T14:15:43;11.02;;;1.90;;
52512;SDS011;38422;53.172;6.974;2022-12-29T14:18:12;9.45;;;1.92;;
52512;SDS011;38422;53.172;6.974;2022-12-29T14:20:52;8.02;;;1.30;;
52512;SDS011;38422;53.172;6.974;2022-12-29T14:28:35;10.07;;;1.70;;
52512;SDS011;38422;53.172;6.974;2022-12-29T14:31:32;6.10;;;1.40;;
52512;SDS011;38422;53.172;6.974;2022-12-29T14:39:03;7.88;;;1.92;;
52512;SDS011;38422;53.172;6.974;2022-12-29T14:46:25;7.32;;;1.65;;
52512;SDS011;38422;53.172;6.974;2022-12-29T14:49:17;9.63;;;1.80;;
52512;SDS011;38422;53.172;6.974;2022-12-29T14:51:45;12.05;;;2.08;;
52512;SDS011;38422;53.172;6.974;2022-12-29T14:57:00;9.18;;;1.75;;
52512;SDS011;38422;53.172;6.974;2022-12-29T14:59:29;8.98;;;1.70;;
52512;SDS011;38422;53.172;6.974;2022-12-29T15:01:57;7.78;;;1.45;;
52512;SDS011;38422;53.172;6.974;2022-12-29T15:04:25;9.82;;;1.73;;
52512;SDS011;38422;53.172;6.974;2022-12-29T15:06:55;10.73;;;1.95;;
52512;SDS011;38422;53.172;6.974;2022-12-29T15:12:04;12.98;;;1.92;;
52512;SDS011;38422;53.172;6.974;2022-12-29T15:14:52;8.20;;;1.50;;
52512;SDS011;38422;53.172;6.974;2022-12-29T15:19:50;7.07;;;1.45;;
52512;SDS011;38422;53.172;6.974;2022-12-29T15:22:16;7.82;;;1.65;;
52512;SDS011;38422;53.172;6.974;2022-12-29T15:24:42;8.80;;;1.95;;
52512;SDS011;38422;53.172;6.974;2022-12-29T15:27:18;11.25;;;1.65;;
52512;SDS011;38422;53.172;6.974;2022-12-29T15:29:46;10.50;;;1.50;;
52512;SDS011;38422;53.172;6.974;2022-12-29T15:34:42;11.75;;;1.67;;
52512;SDS011;38422;53.172;6.974;2022-12-29T15:37:09;8.93;;;1.77;;
52512;SDS011;38422;53.172;6.974;2022-12-29T15:39:41;7.03;;;1.23;;
52512;SDS011;38422;53.172;6.974;2022-12-29T15:42:14;7.93;;;1.20;;
52512;SDS011;38422;53.172;6.974;2022-12-29T15:44:47;6.88;;;1.30;;
52512;SDS011;38422;53.172;6.974;2022-12-29T15:49:42;7.60;;;2.00;;
52512;SDS011;38422;53.172;6.974;2022-12-29T15:52:09;7.63;;;1.60;;
52512;SDS011;38422;53.172;6.974;2022-12-29T15:54:35;5.18;;;1.25;;
52512;SDS011;38422;53.172;6.974;2022-12-29T15:57:02;8.63;;;1.48;;
52512;SDS011;38422;53.172;6.974;2022-12-29T15:59:32;7.00;;;1.30;;
52512;SDS011;38422;53.172;6.974;2022-12-29T16:01:59;7.63;;;1.85;;
52512;SDS011;38422;53.172;6.974;2022-12-29T16:04:29;7.57;;;1.75;;
52512;SDS011;38422;53.172;6.974;2022-12-29T16:07:00;9.70;;;1.80;;
52512;SDS011;38422;53.172;6.974;2022-12-29T16:09:43;9.43;;;1.67;;
52512;SDS011;38422;53.172;6.974;2022-12-29T16:12:17;6.00;;;1.63;;
52512;SDS011;38422;53.172;6.974;2022-12-29T16:14:47;7.68;;;1.42;;
52512;SDS011;38422;53.172;6.974;2022-12-29T16:17:20;9.57;;;1.95;;
52512;SDS011;38422;53.172;6.974;2022-12-29T16:19:52;9.77;;;1.98;;
52512;SDS011;38422;53.172;6.974;2022-12-29T16:27:42;7.20;;;1.67;;
52512;SDS011;38422;53.172;6.974;2022-12-29T16:30:17;7.47;;;1.75;;
52512;SDS011;38422;53.172;6.974;2022-12-29T16:32:50;7.88;;;1.70;;
52512;SDS011;38422;53.172;6.974;2022-12-29T16:35:21;10.10;;;1.77;;
52512;SDS011;38422;53.172;6.974;2022-12-29T16:40:50;11.65;;;2.17;;
52512;SDS011;38422;53.172;6.974;2022-12-29T16:43:27;8.23;;;1.63;;
52512;SDS011;38422;53.172;6.974;2022-12-29T16:51:06;8.77;;;1.55;;
52512;SDS011;38422;53.172;6.974;2022-12-29T16:53:39;10.60;;;1.73;;
52512;SDS011;38422;53.172;6.974;2022-12-29T16:56:17;9.90;;;1.73;;
52512;SDS011;38422;53.172;6.974;2022-12-29T16:58:47;9.80;;;1.92;;
52512;SDS011;38422;53.172;6.974;2022-12-29T17:01:15;7.95;;;1.80;;
52512;SDS011;38422;53.172;6.974;2022-12-29T17:03:53;9.43;;;2.53;;
52512;SDS011;38422;53.172;6.974;2022-12-29T17:06:23;11.50;;;2.13;;
52512;SDS011;38422;53.172;6.974;2022-12-29T17:08:49;12.77;;;2.55;;
52512;SDS011;38422;53.172;6.974;2022-12-29T17:11:22;4.38;;;0.80;;
52512;SDS011;38422;53.172;6.974;2022-12-29T17:17:12;2.40;;;0.60;;
52512;SDS011;38422;53.172;6.974;2022-12-29T17:19:54;4.10;;;0.70;;
52512;SDS011;38422;53.172;6.974;2022-12-29T17:22:27;6.97;;;0.95;;
52512;SDS011;38422;53.172;6.974;2022-12-29T17:24:53;2.67;;;0.60;;
52512;SDS011;38422;53.172;6.974;2022-12-29T17:27:22;2.97;;;0.70;;
52512;SDS011;38422;53.172;6.974;2022-12-29T17:29:48;3.88;;;0.90;;
52512;SDS011;38422;53.172;6.974;2022-12-29T17:32:17;2.88;;;1.48;;
52512;SDS011;38422;53.172;6.974;2022-12-29T17:34:43;6.55;;;1.48;;
52512;SDS011;38422;53.172;6.974;2022-12-29T17:37:28;5.55;;;0.93;;
52512;SDS011;38422;53.172;6.974;2022-12-29T17:39:56;5.78;;;1.30;;
52512;SDS011;38422;53.172;6.974;2022-12-29T17:42:22;4.20;;;1.17;;
52512;SDS011;38422;53.172;6.974;2022-12-29T17:44:48;5.18;;;1.20;;
52512;SDS011;38422;53.172;6.974;2022-12-29T17:47:13;4.60;;;1.23;;
52512;SDS011;38422;53.172;6.974;2022-12-29T17:49:40;6.25;;;1.23;;
52512;SDS011;38422;53.172;6.974;2022-12-29T17:52:10;3.72;;;0.98;;
52512;SDS011;38422;53.172;6.974;2022-12-29T17:54:37;7.57;;;1.50;;
52512;SDS011;38422;53.172;6.974;2022-12-29T17:57:15;5.32;;;1.25;;
52512;SDS011;38422;53.172;6.974;2022-12-29T17:59:42;5.88;;;1.27;;
52512;SDS011;38422;53.172;6.974;2022-12-29T18:02:18;8.38;;;1.20;;
52512;SDS011;38422;53.172;6.974;2022-12-29T18:04:48;4.75;;;1.30;;
52512;SDS011;38422;53.172;6.974;2022-12-29T18:07:14;6.93;;;1.17;;
52512;SDS011;38422;53.172;6.974;2022-12-29T18:09:39;7.47;;;1.23;;